createdAt,value
2018-06-14T00:02:03.843Z,100.00
2018-06-14T00:04:33.679Z,100.00
2018-06-14T00:07:03.535Z,100.00
2018-06-14T00:09:33.516Z,100.00
2018-06-14T00:12:03.597Z,100.00
2018-06-14T00:14:33.348Z,100.00
2018-06-14T00:17:03.080Z,100.00
2018-06-14T00:19:33.802Z,100.00
2018-06-14T00:22:03.534Z,100.00
2018-06-14T00:24:33.230Z,100.00
2018-06-14T00:27:03.006Z,100.00
2018-06-14T00:29:32.739Z,100.00
2018-06-14T00:32:02.516Z,100.00
2018-06-14T00:34:32.253Z,100.00
2018-06-14T00:37:01.921Z,100.00
2018-06-14T00:39:31.786Z,100.00
2018-06-14T00:42:01.552Z,100.00
2018-06-14T00:44:31.655Z,100.00
2018-06-14T00:47:01.506Z,100.00
2018-06-14T00:49:31.267Z,100.00
2018-06-14T00:52:00.953Z,100.00
2018-06-14T00:54:30.647Z,100.00
2018-06-14T00:57:11.176Z,100.00
2018-06-14T00:59:40.884Z,100.00
2018-06-14T01:02:10.653Z,100.00
2018-06-14T01:04:40.371Z,100.00
2018-06-14T01:07:10.100Z,100.00
2018-06-14T01:09:39.791Z,100.00
2018-06-14T01:12:09.476Z,100.00
2018-06-14T01:14:38.772Z,100.00
2018-06-14T01:17:08.813Z,100.00
2018-06-14T01:19:38.656Z,100.00
2018-06-14T01:22:08.308Z,100.00
2018-06-14T01:24:38.029Z,100.00
2018-06-14T01:27:10.277Z,100.00
2018-06-14T01:29:40.135Z,100.00
2018-06-14T01:32:09.972Z,100.00
2018-06-14T01:34:39.614Z,100.00
2018-06-14T01:37:09.350Z,100.00
2018-06-14T01:39:38.977Z,100.00
2018-06-14T01:42:08.613Z,100.00
2018-06-14T01:44:38.237Z,100.00
2018-06-14T01:47:07.937Z,100.00
2018-06-14T01:49:37.578Z,100.00
2018-06-14T01:52:07.285Z,100.00
2018-06-14T01:54:36.889Z,100.00
2018-06-14T01:57:06.636Z,100.00
2018-06-14T01:59:36.405Z,100.00
2018-06-14T02:02:06.561Z,100.00
2018-06-14T02:04:36.344Z,100.00
2018-06-14T02:07:06.076Z,100.00
2018-06-14T02:09:35.738Z,100.00
2018-06-14T02:12:05.570Z,100.00
2018-06-14T02:14:35.256Z,100.00
2018-06-14T02:17:04.964Z,100.00
2018-06-14T02:19:34.802Z,100.00
2018-06-14T02:22:04.160Z,100.00
2018-06-14T02:24:33.843Z,100.00
2018-06-14T02:27:03.638Z,100.00
2018-06-14T02:29:32.993Z,100.00
2018-06-14T02:32:02.630Z,100.00
2018-06-14T02:34:32.395Z,100.00
2018-06-14T02:37:02.102Z,100.00
2018-06-14T02:39:31.788Z,100.00
2018-06-14T02:42:01.546Z,100.00
2018-06-14T02:44:31.166Z,100.00
2018-06-14T02:47:00.838Z,100.00
2018-06-14T02:49:30.153Z,100.00
2018-06-14T02:51:59.810Z,100.00
2018-06-14T02:54:29.528Z,100.00
2018-06-14T02:56:59.236Z,100.00
2018-06-14T02:59:28.894Z,100.00
2018-06-14T03:01:58.188Z,100.00
2018-06-14T03:04:27.820Z,100.00
2018-06-14T03:06:57.321Z,100.00
2018-06-14T03:09:26.969Z,100.00
2018-06-14T03:11:56.642Z,100.00
2018-06-14T03:14:25.965Z,100.00
2018-06-14T03:16:55.618Z,100.00
2018-06-14T03:19:25.305Z,100.00
2018-06-14T03:21:55.104Z,100.00
2018-06-14T03:24:24.753Z,100.00
2018-06-14T03:26:54.413Z,100.00
2018-06-14T03:29:23.837Z,100.00
2018-06-14T03:31:53.577Z,100.00
2018-06-14T03:34:23.224Z,100.00
2018-06-14T03:36:52.864Z,100.00
2018-06-14T03:39:22.518Z,100.00
2018-06-14T03:41:52.197Z,100.00
2018-06-14T03:44:21.886Z,100.00
2018-06-14T03:46:51.311Z,100.00
2018-06-14T03:49:20.941Z,100.00
2018-06-14T03:51:50.677Z,100.00
2018-06-14T03:54:20.355Z,100.00
2018-06-14T03:56:50.257Z,100.00
2018-06-14T03:59:19.994Z,100.00
2018-06-14T04:01:49.698Z,100.00
2018-06-14T04:04:19.537Z,100.00
2018-06-14T04:06:49.212Z,100.00
2018-06-14T04:09:18.552Z,100.00
2018-06-14T04:11:48.275Z,100.00
2018-06-14T04:14:18.393Z,100.00
2018-06-14T04:16:48.055Z,100.00
2018-06-14T04:19:17.729Z,100.00
2018-06-14T04:21:47.429Z,100.00
2018-06-14T04:24:17.129Z,100.00
2018-06-14T04:26:46.839Z,100.00
2018-06-14T04:29:16.509Z,100.00
2018-06-14T04:31:46.266Z,100.00
2018-06-14T04:34:15.979Z,100.00
2018-06-14T04:36:45.782Z,100.00
2018-06-14T04:39:15.153Z,100.00
2018-06-14T04:41:44.793Z,99.63
2018-06-14T04:44:14.466Z,99.82
2018-06-14T04:46:44.411Z,99.47
2018-06-14T04:49:14.102Z,99.64
2018-06-14T04:51:44.396Z,99.42
2018-06-14T04:54:14.136Z,99.06
2018-06-14T04:56:43.836Z,98.67
2018-06-14T04:59:13.478Z,97.73
2018-06-14T05:01:43.246Z,97.50
2018-06-14T05:04:12.974Z,96.51
2018-06-14T05:06:42.654Z,95.90
2018-06-14T05:09:14.176Z,93.86
2018-06-14T05:11:43.965Z,94.83
2018-06-14T05:14:13.623Z,94.12
2018-06-14T05:16:43.284Z,94.09
2018-06-14T05:19:13.095Z,94.55
2018-06-14T05:21:42.766Z,94.54
2018-06-14T05:24:12.542Z,95.64
2018-06-14T05:26:42.549Z,95.19
2018-06-14T05:29:12.186Z,93.72
2018-06-14T05:31:41.865Z,93.89
2018-06-14T05:34:11.525Z,92.69
2018-06-14T05:36:41.333Z,91.45
2018-06-14T05:39:12.542Z,91.15
2018-06-14T05:41:42.356Z,91.06
2018-06-14T05:44:12.230Z,89.92
2018-06-14T05:46:41.946Z,90.61
2018-06-14T05:49:11.625Z,89.89
2018-06-14T05:51:41.321Z,89.85
2018-06-14T05:54:11.057Z,89.91
2018-06-14T05:56:41.070Z,87.85
2018-06-14T05:59:10.913Z,87.43
2018-06-14T06:01:40.613Z,87.09
2018-06-14T06:04:10.283Z,85.85
2018-06-14T06:06:40.238Z,86.07
2018-06-14T06:09:11.608Z,83.52
2018-06-14T06:11:41.669Z,84.11
2018-06-14T06:14:11.432Z,84.08
2018-06-14T06:16:41.136Z,81.58
2018-06-14T06:19:10.902Z,83.64
2018-06-14T06:21:41.246Z,82.29
2018-06-14T06:24:10.882Z,80.37
2018-06-14T06:26:40.564Z,80.21
2018-06-14T06:29:10.243Z,78.83
2018-06-14T06:31:39.571Z,80.04
2018-06-14T06:34:09.283Z,76.88
2018-06-14T06:36:39.605Z,76.55
2018-06-14T06:39:12.265Z,76.12
2018-06-14T06:41:41.640Z,75.52
2018-06-14T06:44:11.316Z,74.28
2018-06-14T06:46:40.963Z,73.97
2018-06-14T06:49:10.586Z,72.89
2018-06-14T06:51:40.217Z,71.74
2018-06-14T06:54:09.941Z,70.65
2018-06-14T06:56:39.304Z,69.71
2018-06-14T06:59:09.106Z,67.47
2018-06-14T07:01:38.794Z,68.39
2018-06-14T07:04:08.440Z,66.75
2018-06-14T07:06:38.088Z,66.83
2018-06-14T07:09:09.990Z,63.28
2018-06-14T07:11:39.890Z,60.77
2018-06-14T07:14:09.549Z,60.46
2018-06-14T07:16:39.645Z,56.69
2018-06-14T07:19:09.469Z,55.07
2018-06-14T07:21:39.185Z,53.22
2018-06-14T07:24:08.849Z,50.25
2018-06-14T07:26:38.641Z,52.73
2018-06-14T07:29:08.348Z,47.92
2018-06-14T07:31:38.010Z,48.91
2018-06-14T07:34:07.795Z,49.13
2018-06-14T07:36:37.549Z,51.38
2018-06-14T07:39:11.429Z,50.38
2018-06-14T07:41:40.877Z,49.78
2018-06-14T07:44:10.515Z,49.60
2018-06-14T07:46:39.796Z,49.31
2018-06-14T07:49:09.461Z,49.54
2018-06-14T07:51:38.741Z,50.66
2018-06-14T07:54:08.469Z,49.05
2018-06-14T07:56:38.105Z,49.29
2018-06-14T07:59:07.862Z,49.34
2018-06-14T08:01:37.543Z,49.04
2018-06-14T08:04:07.173Z,47.64
2018-06-14T08:06:37.019Z,48.88
2018-06-14T08:09:09.514Z,47.43
2018-06-14T08:11:40.181Z,48.03
2018-06-14T08:14:09.925Z,49.88
2018-06-14T08:16:39.574Z,49.37
2018-06-14T08:19:09.192Z,48.57
2018-06-14T08:21:38.510Z,48.11
2018-06-14T08:24:08.212Z,48.39
2018-06-14T08:26:37.861Z,46.78
2018-06-14T08:29:07.604Z,44.88
2018-06-14T08:31:37.264Z,46.39
2018-06-14T08:34:06.937Z,45.01
2018-06-14T08:36:36.565Z,48.95
2018-06-14T08:39:09.305Z,46.20
2018-06-14T08:41:39.044Z,50.06
2018-06-14T08:44:08.841Z,51.21
2018-06-14T08:46:38.140Z,47.54
2018-06-14T08:49:07.858Z,45.49
2018-06-14T08:51:37.693Z,45.48
2018-06-14T08:54:07.553Z,44.54
2018-06-14T08:56:37.211Z,40.30
2018-06-14T08:59:06.910Z,39.83
2018-06-14T09:01:36.529Z,39.32
2018-06-14T09:04:05.953Z,36.97
2018-06-14T09:06:35.608Z,38.66
2018-06-14T09:09:07.935Z,41.72
2018-06-14T09:11:37.582Z,39.06
2018-06-14T09:14:07.710Z,39.69
2018-06-14T09:16:37.549Z,37.56
2018-06-14T09:19:07.269Z,36.35
2018-06-14T09:21:37.154Z,36.23
2018-06-14T09:24:06.978Z,37.34
2018-06-14T09:26:36.731Z,37.79
2018-06-14T09:29:06.523Z,40.77
2018-06-14T09:31:36.242Z,41.39
2018-06-14T09:34:05.955Z,43.77
2018-06-14T09:36:35.620Z,44.96
2018-06-14T09:39:07.912Z,42.91
2018-06-14T09:41:37.568Z,43.94
2018-06-14T09:44:07.289Z,39.55
2018-06-14T09:46:36.977Z,35.82
2018-06-14T09:49:09.705Z,36.51
2018-06-14T09:51:42.105Z,37.80
2018-06-14T09:54:11.897Z,39.51
2018-06-14T09:56:41.558Z,41.08
2018-06-14T09:59:11.217Z,39.98
2018-06-14T10:01:40.932Z,41.62
2018-06-14T10:04:10.650Z,43.12
2018-06-14T10:06:40.403Z,41.81
2018-06-14T10:09:11.966Z,43.53
2018-06-14T10:11:41.845Z,44.51
2018-06-14T10:14:11.473Z,41.80
2018-06-14T10:16:41.177Z,41.87
2018-06-14T10:19:10.482Z,41.40
2018-06-14T10:21:39.967Z,40.17
2018-06-14T10:24:09.710Z,36.98
2018-06-14T10:26:39.113Z,36.17
2018-06-14T10:29:08.449Z,35.15
2018-06-14T10:31:38.177Z,38.25
2018-06-14T10:34:07.897Z,39.25
2018-06-14T10:36:37.533Z,39.85
2018-06-14T10:39:08.919Z,40.65
2018-06-14T10:41:38.220Z,40.75
2018-06-14T10:44:07.855Z,39.99
2018-06-14T10:46:37.562Z,39.41
2018-06-14T10:49:07.241Z,35.03
2018-06-14T10:51:36.548Z,37.83
2018-06-14T10:54:05.892Z,39.45
2018-06-14T10:56:35.550Z,38.89
2018-06-14T10:59:05.212Z,38.95
2018-06-14T11:01:34.850Z,36.89
2018-06-14T11:04:04.749Z,35.36
2018-06-14T11:06:34.569Z,36.87
2018-06-14T11:09:06.166Z,33.54
2018-06-14T11:11:35.904Z,34.06
2018-06-14T11:14:05.244Z,30.51
2018-06-14T11:16:35.135Z,33.92
2018-06-14T11:19:05.069Z,32.46
2018-06-14T11:21:34.800Z,35.41
2018-06-14T11:24:04.522Z,34.12
2018-06-14T11:26:34.155Z,35.06
2018-06-14T11:29:03.925Z,36.99
2018-06-14T11:31:33.557Z,39.51
2018-06-14T11:34:03.245Z,34.28
2018-06-14T11:36:32.886Z,35.74
2018-06-14T11:39:02.619Z,36.58
2018-06-14T11:41:32.389Z,34.04
2018-06-14T11:44:02.072Z,33.95
2018-06-14T11:46:31.612Z,35.55
2018-06-14T11:49:01.503Z,35.88
2018-06-14T11:51:31.193Z,35.36
2018-06-14T11:54:00.941Z,36.36
2018-06-14T11:56:30.700Z,35.39
2018-06-14T11:59:00.460Z,37.44
2018-06-14T12:01:30.118Z,37.52
2018-06-14T12:04:00.073Z,38.37
2018-06-14T12:06:29.986Z,38.12
2018-06-14T12:08:59.610Z,37.14
2018-06-14T12:11:28.912Z,35.60
2018-06-14T12:13:58.564Z,37.47
2018-06-14T12:16:28.337Z,35.71
2018-06-14T12:18:57.689Z,39.96
2018-06-14T12:21:27.392Z,38.90
2018-06-14T12:23:56.996Z,40.15
2018-06-14T12:26:26.717Z,39.57
2018-06-14T12:28:56.465Z,37.59
2018-06-14T12:31:26.114Z,38.12
2018-06-14T12:33:55.568Z,37.61
2018-06-14T12:36:25.231Z,38.25
2018-06-14T12:38:54.641Z,40.09
2018-06-14T12:41:24.400Z,40.32
2018-06-14T12:43:54.213Z,41.77
2018-06-14T12:46:23.855Z,40.10
2018-06-14T12:48:53.517Z,39.52
2018-06-14T12:51:23.174Z,39.25
2018-06-14T12:53:52.888Z,38.23
2018-06-14T12:56:22.665Z,33.86
2018-06-14T12:58:52.370Z,34.74
2018-06-14T13:01:22.043Z,33.43
2018-06-14T13:03:51.700Z,30.83
2018-06-14T13:06:21.339Z,34.75
2018-06-14T13:08:50.977Z,36.56
2018-06-14T13:11:20.702Z,38.94
2018-06-14T13:13:50.040Z,37.88
2018-06-14T13:16:19.722Z,37.82
2018-06-14T13:18:49.035Z,35.80
2018-06-14T13:21:18.340Z,36.45
2018-06-14T13:23:47.700Z,37.75
2018-06-14T13:26:17.352Z,40.40
2018-06-14T13:28:47.275Z,36.31
2018-06-14T13:31:16.620Z,39.81
2018-06-14T13:33:46.286Z,39.42
2018-06-14T13:36:15.614Z,42.23
2018-06-14T13:38:45.364Z,40.21
2018-06-14T13:41:15.036Z,40.35
2018-06-14T13:43:44.869Z,40.42
2018-06-14T13:46:14.829Z,42.40
2018-06-14T13:48:51.051Z,41.75
2018-06-14T13:51:20.623Z,39.73
2018-06-14T13:53:50.343Z,41.89
2018-06-14T13:56:19.641Z,40.08
2018-06-14T13:58:49.325Z,39.53
2018-06-14T14:01:19.006Z,39.51
2018-06-14T14:03:48.617Z,40.53
2018-06-14T14:06:18.294Z,40.45
2018-06-14T14:08:47.633Z,39.55
2018-06-14T14:11:17.251Z,39.30
2018-06-14T14:13:47.066Z,39.83
2018-06-14T14:16:16.682Z,38.38
2018-06-14T14:18:46.406Z,42.24
2018-06-14T14:21:16.097Z,42.38
2018-06-14T14:23:45.709Z,40.67
2018-06-14T14:26:15.411Z,42.11
2018-06-14T14:28:45.086Z,41.46
2018-06-14T14:31:14.873Z,43.00
2018-06-14T14:33:44.454Z,41.94
2018-06-14T14:36:14.247Z,42.58
2018-06-14T14:38:43.780Z,45.23
2018-06-14T14:41:13.437Z,44.97
2018-06-14T14:43:43.233Z,46.76
2018-06-14T14:46:12.887Z,46.72
2018-06-14T14:48:42.246Z,47.87
2018-06-14T14:51:11.919Z,48.63
2018-06-14T14:53:41.640Z,49.33
2018-06-14T14:56:11.565Z,48.51
2018-06-14T14:58:41.261Z,51.82
2018-06-14T15:01:10.957Z,51.40
2018-06-14T15:03:40.636Z,53.05
2018-06-14T15:06:10.525Z,55.09
2018-06-14T15:08:40.847Z,57.15
2018-06-14T15:11:10.483Z,56.96
2018-06-14T15:13:40.227Z,56.31
2018-06-14T15:16:10.070Z,60.75
2018-06-14T15:18:39.482Z,63.49
2018-06-14T15:21:08.824Z,67.82
2018-06-14T15:23:38.592Z,69.33
2018-06-14T15:26:08.082Z,69.12
2018-06-14T15:28:37.821Z,72.15
2018-06-14T15:31:07.235Z,73.58
2018-06-14T15:33:36.922Z,76.11
2018-06-14T15:36:06.765Z,79.75
2018-06-14T15:38:36.551Z,82.10
2018-06-14T15:41:06.239Z,80.70
2018-06-14T15:43:36.022Z,85.32
2018-06-14T15:46:05.820Z,86.80
2018-06-14T15:48:35.198Z,87.13
2018-06-14T15:51:04.899Z,88.65
2018-06-14T15:53:34.691Z,91.01
2018-06-14T15:56:26.181Z,90.04
2018-06-14T15:58:55.891Z,91.81
2018-06-14T16:01:25.554Z,91.69
2018-06-14T16:03:55.671Z,93.44
2018-06-14T16:06:25.361Z,95.26
2018-06-14T16:08:55.252Z,95.43
2018-06-14T16:11:24.993Z,96.87
2018-06-14T16:13:54.696Z,95.21
2018-06-14T16:16:24.912Z,95.21
2018-06-14T16:18:54.914Z,96.46
2018-06-14T16:21:24.644Z,97.35
2018-06-14T16:23:54.314Z,97.02
2018-06-14T16:26:24.142Z,95.56
2018-06-14T16:28:53.818Z,97.00
2018-06-14T16:31:23.541Z,97.47
2018-06-14T16:33:53.328Z,96.87
2018-06-14T16:36:23.168Z,96.23
2018-06-14T16:38:52.861Z,96.47
2018-06-14T16:41:22.530Z,95.06
2018-06-14T16:43:51.962Z,94.21
2018-06-14T16:46:21.648Z,95.46
2018-06-14T16:48:51.094Z,96.16
2018-06-14T16:51:21.012Z,94.51
2018-06-14T16:53:50.742Z,95.57
2018-06-14T16:56:20.409Z,96.02
2018-06-14T16:58:49.802Z,96.39
2018-06-14T17:01:19.507Z,95.72
2018-06-14T17:03:49.312Z,95.93
2018-06-14T17:06:19.181Z,96.74
2018-06-14T17:08:48.799Z,98.48
2018-06-14T17:11:18.606Z,98.81
2018-06-14T17:13:48.307Z,98.04
2018-06-14T17:16:17.961Z,98.90
2018-06-14T17:18:47.868Z,98.67
2018-06-14T17:21:17.642Z,99.73
2018-06-14T17:23:47.398Z,99.16
2018-06-14T17:26:17.152Z,98.69
2018-06-14T17:28:47.022Z,98.56
2018-06-14T17:31:16.770Z,96.88
2018-06-14T17:33:46.704Z,97.95
2018-06-14T17:36:16.384Z,96.83
2018-06-14T17:38:46.159Z,97.71
2018-06-14T17:41:15.957Z,96.41
2018-06-14T17:43:45.591Z,97.27
2018-06-14T17:46:15.365Z,97.19
2018-06-14T17:48:45.339Z,95.92
2018-06-14T17:51:15.407Z,95.82
2018-06-14T17:53:45.205Z,95.03
2018-06-14T17:56:14.886Z,96.34
2018-06-14T17:58:44.555Z,97.66
2018-06-14T18:01:14.017Z,96.89
2018-06-14T18:03:43.690Z,96.92
2018-06-14T18:06:12.987Z,96.35
2018-06-14T18:08:42.671Z,97.65
2018-06-14T18:11:12.436Z,97.00
2018-06-14T18:13:42.234Z,96.51
2018-06-14T18:16:13.529Z,97.66
2018-06-14T18:18:43.398Z,96.44
2018-06-14T18:21:13.189Z,95.82
2018-06-14T18:23:43.069Z,96.82
2018-06-14T18:26:12.768Z,97.49
2018-06-14T18:28:42.537Z,97.62
2018-06-14T18:31:12.513Z,96.30
2018-06-14T18:33:42.220Z,96.94
2018-06-14T18:36:12.016Z,96.76
2018-06-14T18:38:41.407Z,97.16
2018-06-14T18:41:12.887Z,96.87
2018-06-14T18:43:42.569Z,94.37
2018-06-14T18:46:12.304Z,93.30
2018-06-14T18:48:42.063Z,94.71
2018-06-14T18:51:11.888Z,94.88
2018-06-14T18:53:41.573Z,97.36
2018-06-14T18:56:11.438Z,96.62
2018-06-14T18:58:41.170Z,97.28
2018-06-14T19:01:10.893Z,96.36
2018-06-14T19:03:40.720Z,95.66
2018-06-14T19:06:10.494Z,93.29
2018-06-14T19:08:40.351Z,92.25
2018-06-14T19:11:10.121Z,92.37
2018-06-14T19:13:40.110Z,92.57
2018-06-14T19:16:09.822Z,93.64
2018-06-14T19:18:39.564Z,92.34
2018-06-14T19:21:09.666Z,93.03
2018-06-14T19:23:39.448Z,93.89
2018-06-14T19:26:09.227Z,93.38
2018-06-14T19:28:38.893Z,93.24
2018-06-14T19:31:09.107Z,93.43
2018-06-14T19:33:38.765Z,93.04
2018-06-14T19:36:09.202Z,92.81
2018-06-14T19:38:38.912Z,92.78
2018-06-14T19:41:08.820Z,92.85
2018-06-14T19:43:38.572Z,92.30
2018-06-14T19:46:08.034Z,92.53
2018-06-14T19:48:37.805Z,93.18
2018-06-14T19:51:07.575Z,93.55
2018-06-14T19:53:37.775Z,94.03
2018-06-14T19:56:07.966Z,93.15
2018-06-14T19:58:37.413Z,93.38
2018-06-14T20:01:07.262Z,92.98
2018-06-14T20:03:37.439Z,93.70
2018-06-14T20:06:07.424Z,93.62
2018-06-14T20:08:37.263Z,92.92
2018-06-14T20:11:07.181Z,94.22
2018-06-14T20:13:36.918Z,94.20
2018-06-14T20:16:06.654Z,94.58
2018-06-14T20:18:36.794Z,94.93
2018-06-14T20:21:06.780Z,95.11
2018-06-14T20:23:37.969Z,94.11
2018-06-14T20:26:07.516Z,95.50
2018-06-14T20:28:37.247Z,94.96
2018-06-14T20:31:07.357Z,94.54
2018-06-14T20:33:37.142Z,94.41
2018-06-14T20:36:06.906Z,93.71
2018-06-14T20:38:36.580Z,94.24
2018-06-14T20:41:06.325Z,93.75
2018-06-14T20:43:36.008Z,94.45
2018-06-14T20:46:06.065Z,94.36
2018-06-14T20:48:35.786Z,94.24
2018-06-14T20:51:05.630Z,95.06
2018-06-14T20:53:35.537Z,95.41
2018-06-14T20:56:05.269Z,94.66
2018-06-14T20:58:34.973Z,95.64
2018-06-14T21:01:04.684Z,95.57
2018-06-14T21:03:34.500Z,97.39
2018-06-14T21:06:04.297Z,96.63
2018-06-14T21:08:34.069Z,95.74
2018-06-14T21:11:03.812Z,96.37
2018-06-14T21:13:33.513Z,96.30
2018-06-14T21:16:03.412Z,96.82
2018-06-14T21:18:33.327Z,96.39
2018-06-14T21:21:03.311Z,93.74
2018-06-14T21:23:33.125Z,92.48
2018-06-14T21:26:02.882Z,94.76
2018-06-14T21:28:32.618Z,95.65
2018-06-14T21:31:02.474Z,92.91
2018-06-14T21:33:32.179Z,92.53
2018-06-14T21:36:01.945Z,92.93
2018-06-14T21:38:31.633Z,93.17
2018-06-14T21:41:00.979Z,92.62
2018-06-14T21:43:30.672Z,93.53
2018-06-14T21:46:00.361Z,94.94
2018-06-14T21:48:29.757Z,93.95
2018-06-14T21:50:59.484Z,92.68
2018-06-14T21:53:29.018Z,92.33
2018-06-14T21:55:58.745Z,93.14
2018-06-14T21:58:28.520Z,93.30
2018-06-14T22:00:58.268Z,94.79
2018-06-14T22:03:33.197Z,94.42
2018-06-14T22:06:02.888Z,95.14
2018-06-14T22:08:32.565Z,95.58
2018-06-14T22:11:02.226Z,94.33
2018-06-14T22:13:32.001Z,94.24
2018-06-14T22:16:01.619Z,92.47
2018-06-14T22:18:31.558Z,93.10
2018-06-14T22:21:01.328Z,94.23
2018-06-14T22:23:31.042Z,96.00
2018-06-14T22:26:00.874Z,96.13
2018-06-14T22:28:30.630Z,92.99
2018-06-14T22:31:00.329Z,93.28
2018-06-14T22:33:46.817Z,94.25
2018-06-14T22:36:16.537Z,95.04
2018-06-14T22:38:46.368Z,94.56
2018-06-14T22:41:16.120Z,95.47
2018-06-14T22:43:45.890Z,94.98
2018-06-14T22:46:15.585Z,95.21
2018-06-14T22:48:45.011Z,94.89
2018-06-14T22:51:20.118Z,95.79
2018-06-14T22:53:49.969Z,95.63
2018-06-14T22:56:19.629Z,95.75
2018-06-14T22:58:49.429Z,95.58
2018-06-14T23:01:38.245Z,95.99
2018-06-14T23:04:09.183Z,95.42
2018-06-14T23:06:39.130Z,96.70
2018-06-14T23:10:28.546Z,96.30
2018-06-14T23:12:58.293Z,95.37
2018-06-14T23:15:28.145Z,96.28
2018-06-14T23:17:57.683Z,95.69
2018-06-14T23:20:28.309Z,95.40
2018-06-14T23:22:58.867Z,95.62
2018-06-14T23:25:29.308Z,95.70
2018-06-14T23:27:59.000Z,96.33
2018-06-14T23:30:29.031Z,96.64
2018-06-14T23:32:58.742Z,96.05
2018-06-14T23:35:28.448Z,95.71
2018-06-14T23:37:58.102Z,96.73
2018-06-14T23:40:27.921Z,96.99
2018-06-14T23:42:57.572Z,97.78
2018-06-14T23:45:27.270Z,97.35
2018-06-14T23:47:56.912Z,97.69
2018-06-14T23:50:26.654Z,97.58
2018-06-14T23:52:56.362Z,97.69
2018-06-14T23:55:26.003Z,98.37
2018-06-14T23:57:55.707Z,98.67
